sensor_id;sensor_type;location;lat;lon;timestamp;P1;durP1;ratioP1;P2;durP2;ratioP2
24084;SDS011;12268;52.110;5.548;2022-07-10T04:14:09;6.75;;;1.70;;
24084;SDS011;12268;52.110;5.548;2022-07-10T04:16:34;4.65;;;1.73;;
24084;SDS011;12268;52.110;5.548;2022-07-10T04:19:00;8.88;;;1.50;;
24084;SDS011;12268;52.110;5.548;2022-07-10T04:21:25;6.05;;;1.63;;
24084;SDS011;12268;52.110;5.548;2022-07-10T04:23:51;5.10;;;1.90;;
24084;SDS011;12268;52.110;5.548;2022-07-10T04:26:16;5.13;;;1.52;;
24084;SDS011;12268;52.110;5.548;2022-07-10T04:28:42;4.90;;;2.05;;
24084;SDS011;12268;52.110;5.548;2022-07-10T04:31:07;8.75;;;1.95;;
24084;SDS011;12268;52.110;5.548;2022-07-10T04:33:33;7.28;;;1.80;;
24084;SDS011;12268;52.110;5.548;2022-07-10T04:35:59;7.50;;;1.55;;
24084;SDS011;12268;52.110;5.548;2022-07-10T04:38:24;7.70;;;1.75;;
24084;SDS011;12268;52.110;5.548;2022-07-10T04:40:50;10.30;;;2.05;;
24084;SDS011;12268;52.110;5.548;2022-07-10T04:43:15;10.73;;;1.80;;
24084;SDS011;12268;52.110;5.548;2022-07-10T04:45:41;6.63;;;1.70;;
24084;SDS011;12268;52.110;5.548;2022-07-10T04:48:06;4.93;;;1.52;;
24084;SDS011;12268;52.110;5.548;2022-07-10T04:50:32;3.92;;;1.50;;
24084;SDS011;12268;52.110;5.548;2022-07-10T04:52:58;8.27;;;2.20;;
24084;SDS011;12268;52.110;5.548;2022-07-10T04:55:23;6.10;;;1.58;;
24084;SDS011;12268;52.110;5.548;2022-07-10T04:57:49;7.35;;;1.70;;
24084;SDS011;12268;52.110;5.548;2022-07-10T05:00:15;8.50;;;2.10;;
24084;SDS011;12268;52.110;5.548;2022-07-10T05:02:40;10.18;;;2.08;;
24084;SDS011;12268;52.110;5.548;2022-07-10T05:05:07;9.48;;;2.00;;
24084;SDS011;12268;52.110;5.548;2022-07-10T05:07:33;6.57;;;1.75;;
24084;SDS011;12268;52.110;5.548;2022-07-10T05:09:58;8.18;;;2.05;;
24084;SDS011;12268;52.110;5.548;2022-07-10T05:12:24;7.03;;;1.70;;
24084;SDS011;12268;52.110;5.548;2022-07-10T05:14:50;8.25;;;1.70;;
24084;SDS011;12268;52.110;5.548;2022-07-10T05:17:16;5.85;;;2.10;;
24084;SDS011;12268;52.110;5.548;2022-07-10T05:19:41;3.97;;;1.55;;
24084;SDS011;12268;52.110;5.548;2022-07-10T05:22:07;5.80;;;1.60;;
24084;SDS011;12268;52.110;5.548;2022-07-10T05:24:34;7.40;;;1.70;;
24084;SDS011;12268;52.110;5.548;2022-07-10T05:26:59;8.35;;;2.03;;
24084;SDS011;12268;52.110;5.548;2022-07-10T05:29:25;8.00;;;2.22;;
24084;SDS011;12268;52.110;5.548;2022-07-10T05:31:51;8.35;;;2.55;;
24084;SDS011;12268;52.110;5.548;2022-07-10T05:34:16;9.80;;;1.92;;
24084;SDS011;12268;52.110;5.548;2022-07-10T05:36:42;7.78;;;1.92;;
24084;SDS011;12268;52.110;5.548;2022-07-10T05:39:07;8.05;;;2.00;;
24084;SDS011;12268;52.110;5.548;2022-07-10T05:41:33;6.40;;;2.08;;
24084;SDS011;12268;52.110;5.548;2022-07-10T05:43:59;5.38;;;1.83;;
24084;SDS011;12268;52.110;5.548;2022-07-10T05:46:25;12.02;;;2.03;;
24084;SDS011;12268;52.110;5.548;2022-07-10T05:48:50;5.63;;;1.52;;
24084;SDS011;12268;52.110;5.548;2022-07-10T05:51:16;9.32;;;2.38;;
24084;SDS011;12268;52.110;5.548;2022-07-10T05:53:42;5.45;;;1.90;;
24084;SDS011;12268;52.110;5.548;2022-07-10T05:56:08;6.85;;;1.95;;
24084;SDS011;12268;52.110;5.548;2022-07-10T05:58:33;7.22;;;1.70;;
24084;SDS011;12268;52.110;5.548;2022-07-10T06:00:59;7.93;;;2.00;;
24084;SDS011;12268;52.110;5.548;2022-07-10T06:03:25;4.03;;;1.50;;
24084;SDS011;12268;52.110;5.548;2022-07-10T06:05:51;6.05;;;1.80;;
24084;SDS011;12268;52.110;5.548;2022-07-10T06:08:17;4.35;;;1.70;;
24084;SDS011;12268;52.110;5.548;2022-07-10T06:10:43;6.93;;;1.75;;
24084;SDS011;12268;52.110;5.548;2022-07-10T06:13:09;6.05;;;2.03;;
24084;SDS011;12268;52.110;5.548;2022-07-10T06:15:35;7.90;;;1.83;;
24084;SDS011;12268;52.110;5.548;2022-07-10T06:18:01;5.88;;;1.92;;
24084;SDS011;12268;52.110;5.548;2022-07-10T06:20:27;7.43;;;1.90;;
24084;SDS011;12268;52.110;5.548;2022-07-10T06:22:53;4.82;;;2.05;;
24084;SDS011;12268;52.110;5.548;2022-07-10T06:25:19;9.60;;;1.88;;
24084;SDS011;12268;52.110;5.548;2022-07-10T06:27:44;8.27;;;1.70;;
24084;SDS011;12268;52.110;5.548;2022-07-10T06:30:10;12.60;;;2.20;;
24084;SDS011;12268;52.110;5.548;2022-07-10T06:32:36;6.13;;;1.73;;
24084;SDS011;12268;52.110;5.548;2022-07-10T06:35:01;8.70;;;2.00;;
24084;SDS011;12268;52.110;5.548;2022-07-10T06:37:28;9.85;;;2.05;;
24084;SDS011;12268;52.110;5.548;2022-07-10T06:39:55;7.20;;;1.70;;
24084;SDS011;12268;52.110;5.548;2022-07-10T06:42:20;6.38;;;1.73;;
24084;SDS011;12268;52.110;5.548;2022-07-10T06:44:46;7.28;;;2.05;;
24084;SDS011;12268;52.110;5.548;2022-07-10T06:47:12;6.60;;;1.80;;
24084;SDS011;12268;52.110;5.548;2022-07-10T06:49:58;5.63;;;1.70;;
24084;SDS011;12268;52.110;5.548;2022-07-10T06:52:24;5.45;;;1.67;;
24084;SDS011;12268;52.110;5.548;2022-07-10T06:54:49;6.60;;;1.70;;
24084;SDS011;12268;52.110;5.548;2022-07-10T06:57:15;7.43;;;2.08;;
24084;SDS011;12268;52.110;5.548;2022-07-10T06:59:42;12.77;;;1.60;;
24084;SDS011;12268;52.110;5.548;2022-07-10T07:02:08;6.38;;;1.80;;
24084;SDS011;12268;52.110;5.548;2022-07-10T07:04:33;6.95;;;1.63;;
24084;SDS011;12268;52.110;5.548;2022-07-10T07:06:59;7.15;;;1.60;;
24084;SDS011;12268;52.110;5.548;2022-07-10T07:09:26;9.35;;;1.80;;
24084;SDS011;12268;52.110;5.548;2022-07-10T07:11:51;7.38;;;2.00;;
24084;SDS011;12268;52.110;5.548;2022-07-10T07:14:17;9.38;;;2.00;;
24084;SDS011;12268;52.110;5.548;2022-07-10T07:16:42;5.68;;;1.75;;
24084;SDS011;12268;52.110;5.548;2022-07-10T07:19:11;6.85;;;1.90;;
24084;SDS011;12268;52.110;5.548;2022-07-10T07:21:42;10.90;;;2.13;;
24084;SDS011;12268;52.110;5.548;2022-07-10T07:24:27;7.22;;;2.05;;
24084;SDS011;12268;52.110;5.548;2022-07-10T07:26:52;6.97;;;1.75;;
24084;SDS011;12268;52.110;5.548;2022-07-10T07:29:18;9.85;;;2.15;;
24084;SDS011;12268;52.110;5.548;2022-07-10T07:31:44;7.65;;;1.67;;
24084;SDS011;12268;52.110;5.548;2022-07-10T07:34:10;6.80;;;1.48;;
24084;SDS011;12268;52.110;5.548;2022-07-10T07:36:35;3.35;;;1.60;;
24084;SDS011;12268;52.110;5.548;2022-07-10T07:39:02;2.85;;;1.55;;
24084;SDS011;12268;52.110;5.548;2022-07-10T07:41:28;6.35;;;2.17;;
24084;SDS011;12268;52.110;5.548;2022-07-10T07:43:53;6.78;;;1.88;;
24084;SDS011;12268;52.110;5.548;2022-07-10T07:46:19;7.05;;;1.73;;
24084;SDS011;12268;52.110;5.548;2022-07-10T07:48:45;4.35;;;1.70;;
24084;SDS011;12268;52.110;5.548;2022-07-10T07:51:11;5.00;;;1.92;;
24084;SDS011;12268;52.110;5.548;2022-07-10T07:53:37;6.78;;;2.15;;
24084;SDS011;12268;52.110;5.548;2022-07-10T07:56:02;6.97;;;1.80;;
24084;SDS011;12268;52.110;5.548;2022-07-10T07:58:28;8.00;;;2.10;;
24084;SDS011;12268;52.110;5.548;2022-07-10T08:00:55;4.53;;;2.00;;
24084;SDS011;12268;52.110;5.548;2022-07-10T08:03:21;3.38;;;1.60;;
24084;SDS011;12268;52.110;5.548;2022-07-10T08:05:47;4.10;;;1.55;;
24084;SDS011;12268;52.110;5.548;2022-07-10T08:08:13;5.68;;;2.17;;
24084;SDS011;12268;52.110;5.548;2022-07-10T08:10:38;4.85;;;1.50;;
24084;SDS011;12268;52.110;5.548;2022-07-10T08:13:04;8.10;;;1.77;;
24084;SDS011;12268;52.110;5.548;2022-07-10T08:15:30;6.80;;;1.95;;
24084;SDS011;12268;52.110;5.548;2022-07-10T08:17:57;6.85;;;2.05;;
24084;SDS011;12268;52.110;5.548;2022-07-10T08:20:24;5.28;;;2.03;;
24084;SDS011;12268;52.110;5.548;2022-07-10T08:22:51;3.50;;;1.50;;
24084;SDS011;12268;52.110;5.548;2022-07-10T08:25:18;5.03;;;1.95;;
24084;SDS011;12268;52.110;5.548;2022-07-10T08:27:44;3.95;;;1.60;;
24084;SDS011;12268;52.110;5.548;2022-07-10T08:30:10;5.43;;;1.80;;
24084;SDS011;12268;52.110;5.548;2022-07-10T08:32:36;5.68;;;1.70;;
24084;SDS011;12268;52.110;5.548;2022-07-10T08:35:03;8.20;;;1.88;;
24084;SDS011;12268;52.110;5.548;2022-07-10T08:37:29;8.23;;;1.80;;
24084;SDS011;12268;52.110;5.548;2022-07-10T08:39:55;4.22;;;1.40;;
24084;SDS011;12268;52.110;5.548;2022-07-10T08:42:20;6.80;;;1.75;;
24084;SDS011;12268;52.110;5.548;2022-07-10T08:44:47;3.35;;;1.60;;
24084;SDS011;12268;52.110;5.548;2022-07-10T08:47:13;5.75;;;1.95;;
24084;SDS011;12268;52.110;5.548;2022-07-10T08:49:44;4.53;;;1.85;;
24084;SDS011;12268;52.110;5.548;2022-07-10T08:52:33;4.50;;;1.77;;
24084;SDS011;12268;52.110;5.548;2022-07-10T08:55:19;3.00;;;1.40;;
24084;SDS011;12268;52.110;5.548;2022-07-10T08:57:47;6.22;;;2.00;;
24084;SDS011;12268;52.110;5.548;2022-07-10T09:00:13;4.55;;;1.85;;
24084;SDS011;12268;52.110;5.548;2022-07-10T09:02:39;5.25;;;1.90;;
24084;SDS011;12268;52.110;5.548;2022-07-10T09:05:04;6.85;;;2.03;;
24084;SDS011;12268;52.110;5.548;2022-07-10T09:07:36;4.85;;;1.67;;
24084;SDS011;12268;52.110;5.548;2022-07-10T09:10:09;4.68;;;1.50;;
24084;SDS011;12268;52.110;5.548;2022-07-10T09:12:56;4.85;;;2.00;;
24084;SDS011;12268;52.110;5.548;2022-07-10T09:15:28;4.18;;;1.95;;
24084;SDS011;12268;52.110;5.548;2022-07-10T09:17:57;3.42;;;1.63;;
24084;SDS011;12268;52.110;5.548;2022-07-10T09:20:32;3.45;;;1.50;;
24084;SDS011;12268;52.110;5.548;2022-07-10T09:23:08;3.40;;;1.50;;
24084;SDS011;12268;52.110;5.548;2022-07-10T09:25:42;5.47;;;1.60;;
24084;SDS011;12268;52.110;5.548;2022-07-10T09:28:09;3.47;;;1.50;;
24084;SDS011;12268;52.110;5.548;2022-07-10T09:30:35;4.90;;;1.60;;
24084;SDS011;12268;52.110;5.548;2022-07-10T09:46:31;4.75;;;1.55;;
24084;SDS011;12268;52.110;5.548;2022-07-10T09:49:02;3.95;;;1.70;;
24084;SDS011;12268;52.110;5.548;2022-07-10T09:51:36;2.53;;;1.48;;
24084;SDS011;12268;52.110;5.548;2022-07-10T09:54:04;2.53;;;1.58;;
24084;SDS011;12268;52.110;5.548;2022-07-10T09:56:32;9.07;;;1.85;;
24084;SDS011;12268;52.110;5.548;2022-07-10T09:59:20;3.55;;;1.52;;
24084;SDS011;12268;52.110;5.548;2022-07-10T10:01:50;3.20;;;1.40;;
24084;SDS011;12268;52.110;5.548;2022-07-10T10:04:17;2.17;;;1.30;;
24084;SDS011;12268;52.110;5.548;2022-07-10T10:06:51;3.40;;;1.42;;
24084;SDS011;12268;52.110;5.548;2022-07-10T10:09:22;4.45;;;1.70;;
24084;SDS011;12268;52.110;5.548;2022-07-10T10:11:56;3.85;;;1.13;;
24084;SDS011;12268;52.110;5.548;2022-07-10T10:14:23;4.32;;;1.58;;
24084;SDS011;12268;52.110;5.548;2022-07-10T10:16:52;5.38;;;1.30;;
24084;SDS011;12268;52.110;5.548;2022-07-10T10:19:20;3.50;;;1.40;;
24084;SDS011;12268;52.110;5.548;2022-07-10T10:22:08;3.70;;;1.42;;
24084;SDS011;12268;52.110;5.548;2022-07-10T10:24:34;3.20;;;1.33;;
24084;SDS011;12268;52.110;5.548;2022-07-10T10:27:02;2.15;;;1.30;;
24084;SDS011;12268;52.110;5.548;2022-07-10T10:29:30;5.50;;;1.95;;
24084;SDS011;12268;52.110;5.548;2022-07-10T10:31:56;2.05;;;1.30;;
24084;SDS011;12268;52.110;5.548;2022-07-10T10:34:37;3.17;;;1.45;;
24084;SDS011;12268;52.110;5.548;2022-07-10T11:49:36;1.52;;;1.10;;
24084;SDS011;12268;52.110;5.548;2022-07-10T11:52:10;5.25;;;1.50;;
24084;SDS011;12268;52.110;5.548;2022-07-10T11:54:35;1.77;;;1.27;;
24084;SDS011;12268;52.110;5.548;2022-07-10T11:57:06;3.65;;;1.30;;
24084;SDS011;12268;52.110;5.548;2022-07-10T11:59:33;6.10;;;1.38;;
24084;SDS011;12268;52.110;5.548;2022-07-10T12:01:58;5.70;;;1.60;;
24084;SDS011;12268;52.110;5.548;2022-07-10T12:04:24;11.48;;;2.65;;
24084;SDS011;12268;52.110;5.548;2022-07-10T12:06:53;4.57;;;1.48;;
24084;SDS011;12268;52.110;5.548;2022-07-10T12:09:21;7.53;;;1.60;;
24084;SDS011;12268;52.110;5.548;2022-07-10T12:12:03;5.00;;;1.98;;
24084;SDS011;12268;52.110;5.548;2022-07-10T12:14:31;2.78;;;1.40;;
24084;SDS011;12268;52.110;5.548;2022-07-10T12:16:58;4.07;;;1.70;;
24084;SDS011;12268;52.110;5.548;2022-07-10T12:19:28;6.05;;;1.70;;
24084;SDS011;12268;52.110;5.548;2022-07-10T12:21:58;3.75;;;1.48;;
24084;SDS011;12268;52.110;5.548;2022-07-10T12:24:24;4.03;;;1.77;;
24084;SDS011;12268;52.110;5.548;2022-07-10T12:26:51;5.05;;;1.60;;
24084;SDS011;12268;52.110;5.548;2022-07-10T12:31:43;6.60;;;1.85;;
24084;SDS011;12268;52.110;5.548;2022-07-10T12:34:10;3.63;;;1.70;;
24084;SDS011;12268;52.110;5.548;2022-07-10T12:36:44;5.55;;;2.10;;
24084;SDS011;12268;52.110;5.548;2022-07-10T12:39:20;5.45;;;1.90;;
24084;SDS011;12268;52.110;5.548;2022-07-10T12:42:00;4.28;;;1.88;;
24084;SDS011;12268;52.110;5.548;2022-07-10T12:47:17;3.78;;;1.80;;
24084;SDS011;12268;52.110;5.548;2022-07-10T12:49:48;4.45;;;1.80;;
24084;SDS011;12268;52.110;5.548;2022-07-10T12:55:10;4.00;;;1.73;;
24084;SDS011;12268;52.110;5.548;2022-07-10T12:57:52;5.93;;;1.75;;
24084;SDS011;12268;52.110;5.548;2022-07-10T13:02:49;4.20;;;1.67;;
24084;SDS011;12268;52.110;5.548;2022-07-10T13:05:35;5.50;;;1.60;;
24084;SDS011;12268;52.110;5.548;2022-07-10T13:08:04;4.60;;;1.60;;
24084;SDS011;12268;52.110;5.548;2022-07-10T13:10:48;4.93;;;1.70;;
24084;SDS011;12268;52.110;5.548;2022-07-10T13:13:16;3.50;;;1.73;;
24084;SDS011;12268;52.110;5.548;2022-07-10T13:15:42;2.65;;;1.30;;
24084;SDS011;12268;52.110;5.548;2022-07-10T13:18:14;3.85;;;1.52;;
24084;SDS011;12268;52.110;5.548;2022-07-10T13:23:10;5.93;;;1.55;;
24084;SDS011;12268;52.110;5.548;2022-07-10T13:25:37;3.45;;;1.50;;
24084;SDS011;12268;52.110;5.548;2022-07-10T13:28:03;2.97;;;1.52;;
24084;SDS011;12268;52.110;5.548;2022-07-10T13:30:29;3.42;;;1.63;;
24084;SDS011;12268;52.110;5.548;2022-07-10T13:32:56;5.13;;;1.75;;
24084;SDS011;12268;52.110;5.548;2022-07-10T13:35:22;2.88;;;1.40;;
24084;SDS011;12268;52.110;5.548;2022-07-10T13:37:47;2.33;;;1.33;;
24084;SDS011;12268;52.110;5.548;2022-07-10T13:40:13;3.63;;;1.58;;
24084;SDS011;12268;52.110;5.548;2022-07-10T13:42:39;3.30;;;1.80;;
24084;SDS011;12268;52.110;5.548;2022-07-10T13:45:05;2.55;;;1.85;;
24084;SDS011;12268;52.110;5.548;2022-07-10T13:47:32;3.17;;;1.65;;
24084;SDS011;12268;52.110;5.548;2022-07-10T13:49:58;3.80;;;1.77;;
24084;SDS011;12268;52.110;5.548;2022-07-10T13:52:24;3.75;;;1.65;;
24084;SDS011;12268;52.110;5.548;2022-07-10T13:54:49;4.28;;;1.65;;
24084;SDS011;12268;52.110;5.548;2022-07-10T13:57:15;4.22;;;1.85;;
24084;SDS011;12268;52.110;5.548;2022-07-10T13:59:40;4.35;;;1.80;;
24084;SDS011;12268;52.110;5.548;2022-07-10T14:02:06;3.85;;;1.77;;
24084;SDS011;12268;52.110;5.548;2022-07-10T14:04:31;3.72;;;1.70;;
24084;SDS011;12268;52.110;5.548;2022-07-10T14:06:57;5.32;;;1.80;;
24084;SDS011;12268;52.110;5.548;2022-07-10T14:09:23;3.97;;;1.95;;
24084;SDS011;12268;52.110;5.548;2022-07-10T14:11:49;3.35;;;1.42;;
24084;SDS011;12268;52.110;5.548;2022-07-10T14:14:15;5.88;;;1.80;;
24084;SDS011;12268;52.110;5.548;2022-07-10T14:16:41;3.70;;;1.95;;
24084;SDS011;12268;52.110;5.548;2022-07-10T14:19:08;4.03;;;1.85;;
24084;SDS011;12268;52.110;5.548;2022-07-10T14:21:34;5.75;;;1.73;;
24084;SDS011;12268;52.110;5.548;2022-07-10T14:24:00;3.35;;;1.70;;
24084;SDS011;12268;52.110;5.548;2022-07-10T14:26:27;3.60;;;1.67;;
24084;SDS011;12268;52.110;5.548;2022-07-10T14:28:53;2.67;;;1.90;;
24084;SDS011;12268;52.110;5.548;2022-07-10T14:31:20;3.90;;;1.80;;
24084;SDS011;12268;52.110;5.548;2022-07-10T14:33:45;4.53;;;1.40;;
24084;SDS011;12268;52.110;5.548;2022-07-10T14:36:11;4.10;;;1.73;;
24084;SDS011;12268;52.110;5.548;2022-07-10T14:38:37;5.45;;;1.65;;
24084;SDS011;12268;52.110;5.548;2022-07-10T14:41:02;6.13;;;2.20;;
24084;SDS011;12268;52.110;5.548;2022-07-10T14:43:29;5.00;;;1.80;;
24084;SDS011;12268;52.110;5.548;2022-07-10T14:45:58;4.55;;;2.13;;
24084;SDS011;12268;52.110;5.548;2022-07-10T14:48:25;2.97;;;1.60;;
24084;SDS011;12268;52.110;5.548;2022-07-10T14:50:51;3.30;;;1.42;;
24084;SDS011;12268;52.110;5.548;2022-07-10T14:53:16;5.28;;;1.80;;
24084;SDS011;12268;52.110;5.548;2022-07-10T14:55:42;4.15;;;1.67;;
24084;SDS011;12268;52.110;5.548;2022-07-10T14:58:07;7.05;;;1.70;;
24084;SDS011;12268;52.110;5.548;2022-07-10T15:00:33;3.95;;;1.90;;
24084;SDS011;12268;52.110;5.548;2022-07-10T15:02:59;3.50;;;1.90;;
24084;SDS011;12268;52.110;5.548;2022-07-10T15:05:24;3.83;;;1.85;;
24084;SDS011;12268;52.110;5.548;2022-07-10T15:07:50;7.10;;;2.28;;
24084;SDS011;12268;52.110;5.548;2022-07-10T15:10:15;4.72;;;1.88;;
24084;SDS011;12268;52.110;5.548;2022-07-10T15:12:43;5.65;;;1.83;;
24084;SDS011;12268;52.110;5.548;2022-07-10T15:15:09;3.88;;;1.83;;
24084;SDS011;12268;52.110;5.548;2022-07-10T15:17:35;4.90;;;2.28;;
24084;SDS011;12268;52.110;5.548;2022-07-10T15:20:02;5.47;;;2.25;;
24084;SDS011;12268;52.110;5.548;2022-07-10T15:22:28;4.82;;;2.10;;
24084;SDS011;12268;52.110;5.548;2022-07-10T15:24:54;3.17;;;1.50;;
24084;SDS011;12268;52.110;5.548;2022-07-10T15:27:19;3.67;;;1.58;;
24084;SDS011;12268;52.110;5.548;2022-07-10T15:29:45;9.90;;;1.95;;
24084;SDS011;12268;52.110;5.548;2022-07-10T15:32:10;5.45;;;2.05;;
24084;SDS011;12268;52.110;5.548;2022-07-10T15:34:37;4.25;;;1.92;;
24084;SDS011;12268;52.110;5.548;2022-07-10T15:37:03;4.97;;;1.92;;
24084;SDS011;12268;52.110;5.548;2022-07-10T15:39:28;3.15;;;1.83;;
24084;SDS011;12268;52.110;5.548;2022-07-10T15:41:54;4.05;;;1.75;;
24084;SDS011;12268;52.110;5.548;2022-07-10T15:44:20;3.15;;;1.65;;
24084;SDS011;12268;52.110;5.548;2022-07-10T15:46:45;4.38;;;1.90;;
24084;SDS011;12268;52.110;5.548;2022-07-10T15:49:11;4.65;;;2.17;;
24084;SDS011;12268;52.110;5.548;2022-07-10T15:51:37;6.18;;;1.90;;
24084;SDS011;12268;52.110;5.548;2022-07-10T15:54:02;4.45;;;2.20;;
24084;SDS011;12268;52.110;5.548;2022-07-10T15:56:28;5.45;;;2.25;;
24084;SDS011;12268;52.110;5.548;2022-07-10T15:58:54;5.90;;;2.30;;
24084;SDS011;12268;52.110;5.548;2022-07-10T16:01:19;4.90;;;2.03;;
24084;SDS011;12268;52.110;5.548;2022-07-10T16:03:45;6.60;;;2.38;;
24084;SDS011;12268;52.110;5.548;2022-07-10T16:06:11;6.03;;;2.60;;
24084;SDS011;12268;52.110;5.548;2022-07-10T16:08:37;5.20;;;2.53;;
24084;SDS011;12268;52.110;5.548;2022-07-10T16:11:03;6.03;;;2.22;;
24084;SDS011;12268;52.110;5.548;2022-07-10T16:13:29;4.97;;;2.33;;
24084;SDS011;12268;52.110;5.548;2022-07-10T16:15:56;3.90;;;2.30;;
24084;SDS011;12268;52.110;5.548;2022-07-10T16:18:22;6.90;;;2.28;;
24084;SDS011;12268;52.110;5.548;2022-07-10T16:20:47;5.47;;;2.08;;
24084;SDS011;12268;52.110;5.548;2022-07-10T16:23:14;5.97;;;2.25;;
24084;SDS011;12268;52.110;5.548;2022-07-10T16:25:40;4.10;;;2.30;;
24084;SDS011;12268;52.110;5.548;2022-07-10T16:28:24;4.57;;;2.20;;
24084;SDS011;12268;52.110;5.548;2022-07-10T16:30:49;6.15;;;2.50;;
24084;SDS011;12268;52.110;5.548;2022-07-10T16:33:15;4.45;;;2.30;;
24084;SDS011;12268;52.110;5.548;2022-07-10T16:35:41;8.95;;;2.70;;
24084;SDS011;12268;52.110;5.548;2022-07-10T16:38:06;5.53;;;2.38;;
24084;SDS011;12268;52.110;5.548;2022-07-10T16:40:32;3.90;;;2.30;;
24084;SDS011;12268;52.110;5.548;2022-07-10T16:42:57;6.38;;;2.47;;
24084;SDS011;12268;52.110;5.548;2022-07-10T16:45:24;6.38;;;2.78;;
24084;SDS011;12268;52.110;5.548;2022-07-10T16:47:50;5.50;;;2.63;;
24084;SDS011;12268;52.110;5.548;2022-07-10T16:50:15;4.85;;;2.45;;
24084;SDS011;12268;52.110;5.548;2022-07-10T16:52:41;6.18;;;2.38;;
24084;SDS011;12268;52.110;5.548;2022-07-10T16:55:10;4.35;;;2.30;;
24084;SDS011;12268;52.110;5.548;2022-07-10T16:57:35;4.57;;;2.30;;
24084;SDS011;12268;52.110;5.548;2022-07-10T17:00:02;7.05;;;2.53;;
24084;SDS011;12268;52.110;5.548;2022-07-10T17:02:28;5.95;;;2.67;;
24084;SDS011;12268;52.110;5.548;2022-07-10T17:04:54;5.15;;;2.70;;
24084;SDS011;12268;52.110;5.548;2022-07-10T17:07:20;5.85;;;2.83;;
24084;SDS011;12268;52.110;5.548;2022-07-10T17:09:45;8.40;;;3.08;;
24084;SDS011;12268;52.110;5.548;2022-07-10T17:12:11;6.05;;;2.92;;
24084;SDS011;12268;52.110;5.548;2022-07-10T17:14:36;4.18;;;2.67;;
24084;SDS011;12268;52.110;5.548;2022-07-10T17:17:02;4.75;;;2.35;;
24084;SDS011;12268;52.110;5.548;2022-07-10T17:19:28;7.25;;;2.70;;
24084;SDS011;12268;52.110;5.548;2022-07-10T17:21:54;4.15;;;2.00;;
24084;SDS011;12268;52.110;5.548;2022-07-10T17:24:20;4.00;;;1.90;;
24084;SDS011;12268;52.110;5.548;2022-07-10T17:26:46;6.35;;;2.08;;
24084;SDS011;12268;52.110;5.548;2022-07-10T17:29:12;7.47;;;2.65;;
24084;SDS011;12268;52.110;5.548;2022-07-10T17:31:37;4.18;;;2.10;;
24084;SDS011;12268;52.110;5.548;2022-07-10T17:34:03;4.32;;;2.17;;
24084;SDS011;12268;52.110;5.548;2022-07-10T17:36:28;4.95;;;2.20;;
24084;SDS011;12268;52.110;5.548;2022-07-10T17:38:54;8.88;;;2.85;;
24084;SDS011;12268;52.110;5.548;2022-07-10T17:41:20;3.92;;;2.10;;
24084;SDS011;12268;52.110;5.548;2022-07-10T17:43:45;7.35;;;2.20;;
24084;SDS011;12268;52.110;5.548;2022-07-10T17:46:11;4.80;;;2.30;;
24084;SDS011;12268;52.110;5.548;2022-07-10T17:48:37;3.95;;;2.28;;
24084;SDS011;12268;52.110;5.548;2022-07-10T17:51:03;4.75;;;2.53;;
24084;SDS011;12268;52.110;5.548;2022-07-10T17:53:28;6.03;;;2.00;;
24084;SDS011;12268;52.110;5.548;2022-07-10T17:55:54;7.43;;;2.22;;
24084;SDS011;12268;52.110;5.548;2022-07-10T17:58:20;6.40;;;2.53;;
24084;SDS011;12268;52.110;5.548;2022-07-10T18:00:45;4.35;;;2.20;;
24084;SDS011;12268;52.110;5.548;2022-07-10T18:03:11;5.15;;;1.90;;
24084;SDS011;12268;52.110;5.548;2022-07-10T18:05:37;5.60;;;2.33;;
24084;SDS011;12268;52.110;5.548;2022-07-10T18:08:03;7.25;;;2.33;;
24084;SDS011;12268;52.110;5.548;2022-07-10T18:20:52;4.68;;;2.40;;
24084;SDS011;12268;52.110;5.548;2022-07-10T18:23:18;5.00;;;2.45;;
24084;SDS011;12268;52.110;5.548;2022-07-10T18:25:43;5.22;;;2.33;;
24084;SDS011;12268;52.110;5.548;2022-07-10T18:28:09;4.88;;;2.53;;
24084;SDS011;12268;52.110;5.548;2022-07-10T18:30:35;6.45;;;2.60;;
24084;SDS011;12268;52.110;5.548;2022-07-10T18:33:01;6.60;;;2.90;;
24084;SDS011;12268;52.110;5.548;2022-07-10T18:35:45;7.28;;;2.58;;
24084;SDS011;12268;52.110;5.548;2022-07-10T18:38:10;6.75;;;2.70;;
24084;SDS011;12268;52.110;5.548;2022-07-10T18:40:37;7.00;;;3.10;;
24084;SDS011;12268;52.110;5.548;2022-07-10T18:43:03;5.35;;;2.45;;
24084;SDS011;12268;52.110;5.548;2022-07-10T18:45:28;6.68;;;2.92;;
24084;SDS011;12268;52.110;5.548;2022-07-10T18:47:54;4.85;;;2.53;;
24084;SDS011;12268;52.110;5.548;2022-07-10T18:50:19;5.00;;;2.65;;
24084;SDS011;12268;52.110;5.548;2022-07-10T18:52:45;6.20;;;2.75;;
24084;SDS011;12268;52.110;5.548;2022-07-10T18:55:10;9.63;;;2.85;;
24084;SDS011;12268;52.110;5.548;2022-07-10T18:57:36;4.78;;;2.38;;
24084;SDS011;12268;52.110;5.548;2022-07-10T19:00:02;5.85;;;2.85;;
24084;SDS011;12268;52.110;5.548;2022-07-10T19:02:28;4.82;;;2.88;;
24084;SDS011;12268;52.110;5.548;2022-07-10T19:04:56;4.95;;;2.55;;
24084;SDS011;12268;52.110;5.548;2022-07-10T19:07:21;5.85;;;3.05;;
24084;SDS011;12268;52.110;5.548;2022-07-10T19:09:47;9.07;;;3.47;;
24084;SDS011;12268;52.110;5.548;2022-07-10T19:12:13;8.35;;;3.20;;
24084;SDS011;12268;52.110;5.548;2022-07-10T19:14:38;7.60;;;3.20;;
24084;SDS011;12268;52.110;5.548;2022-07-10T19:17:04;7.43;;;3.60;;
24084;SDS011;12268;52.110;5.548;2022-07-10T19:19:29;9.30;;;3.05;;
24084;SDS011;12268;52.110;5.548;2022-07-10T19:21:55;6.57;;;3.28;;
24084;SDS011;12268;52.110;5.548;2022-07-10T19:24:20;7.80;;;2.80;;
24084;SDS011;12268;52.110;5.548;2022-07-10T19:26:48;7.60;;;2.97;;
24084;SDS011;12268;52.110;5.548;2022-07-10T19:29:15;6.18;;;3.20;;
24084;SDS011;12268;52.110;5.548;2022-07-10T19:31:40;8.88;;;3.20;;
24084;SDS011;12268;52.110;5.548;2022-07-10T19:34:06;6.18;;;3.38;;
24084;SDS011;12268;52.110;5.548;2022-07-10T19:36:32;5.93;;;3.03;;
24084;SDS011;12268;52.110;5.548;2022-07-10T19:38:57;8.77;;;4.20;;
24084;SDS011;12268;52.110;5.548;2022-07-10T19:41:23;8.70;;;3.47;;
24084;SDS011;12268;52.110;5.548;2022-07-10T19:43:49;8.55;;;3.53;;
24084;SDS011;12268;52.110;5.548;2022-07-10T19:46:14;10.20;;;4.15;;
24084;SDS011;12268;52.110;5.548;2022-07-10T19:48:40;9.20;;;3.70;;
24084;SDS011;12268;52.110;5.548;2022-07-10T19:51:12;7.75;;;3.50;;
24084;SDS011;12268;52.110;5.548;2022-07-10T19:53:37;9.68;;;3.92;;
24084;SDS011;12268;52.110;5.548;2022-07-10T19:56:03;9.20;;;4.18;;
24084;SDS011;12268;52.110;5.548;2022-07-10T19:58:29;9.88;;;3.50;;
24084;SDS011;12268;52.110;5.548;2022-07-10T20:00:54;8.55;;;3.28;;
24084;SDS011;12268;52.110;5.548;2022-07-10T20:03:20;6.95;;;3.17;;
24084;SDS011;12268;52.110;5.548;2022-07-10T20:05:45;7.55;;;3.30;;
24084;SDS011;12268;52.110;5.548;2022-07-10T20:08:11;7.82;;;3.38;;
24084;SDS011;12268;52.110;5.548;2022-07-10T20:10:36;6.35;;;3.38;;
24084;SDS011;12268;52.110;5.548;2022-07-10T20:13:02;6.15;;;3.25;;
24084;SDS011;12268;52.110;5.548;2022-07-10T20:15:28;6.20;;;3.33;;
24084;SDS011;12268;52.110;5.548;2022-07-10T20:17:53;8.30;;;3.47;;
24084;SDS011;12268;52.110;5.548;2022-07-10T20:20:19;8.85;;;3.63;;
24084;SDS011;12268;52.110;5.548;2022-07-10T20:22:44;10.02;;;3.72;;
24084;SDS011;12268;52.110;5.548;2022-07-10T20:25:10;7.22;;;3.42;;
24084;SDS011;12268;52.110;5.548;2022-07-10T20:27:36;7.90;;;3.20;;
24084;SDS011;12268;52.110;5.548;2022-07-10T20:30:04;5.70;;;3.38;;
24084;SDS011;12268;52.110;5.548;2022-07-10T20:32:33;6.43;;;3.30;;
24084;SDS011;12268;52.110;5.548;2022-07-10T20:34:58;6.97;;;3.78;;
24084;SDS011;12268;52.110;5.548;2022-07-10T20:37:24;9.93;;;3.85;;
24084;SDS011;12268;52.110;5.548;2022-07-10T20:40:13;7.63;;;3.97;;
24084;SDS011;12268;52.110;5.548;2022-07-10T20:42:41;6.97;;;3.40;;
24084;SDS011;12268;52.110;5.548;2022-07-10T20:45:07;5.72;;;3.47;;
24084;SDS011;12268;52.110;5.548;2022-07-10T20:47:35;8.70;;;3.60;;
24084;SDS011;12268;52.110;5.548;2022-07-10T20:50:02;7.03;;;3.85;;